Time;durP1;ratioP1;P1;durP2;ratioP2;P2;SDS_P1;SDS_P2;PMS_P1;PMS_P2;Temp;Humidity;BMP_temperature;BMP_pressure;BME280_temperature;BME280_humidity;BME280_pressure;Samples;Min_cycle;Max_cycle;Signal;HPM_P1;HPM_P2
2021/12/17 00:00:30;;;;;;;27.88;24.88;;;12.40;86.30;;;;;;5075543;28;20028;-66
2021/12/17 00:05:52;;;;;;;25.67;22.88;;;12.40;86.80;;;;;;5075685;28;20082;-66
2021/12/17 00:08:22;;;;;;;29.58;24.35;;;12.40;86.70;;;;;;5075727;28;20454;-66
2021/12/17 00:10:50;;;;;;;32.40;25.52;;;12.40;86.40;;;;;;5075573;28;20020;-66
2021/12/17 00:13:17;;;;;;;28.73;24.98;;;12.40;86.10;;;;;;5075144;28;20035;-66
2021/12/17 00:15:44;;;;;;;28.00;23.30;;;12.40;86.30;;;;;;5075268;28;20025;-66
2021/12/17 00:18:17;;;;;;;23.92;21.38;;;12.30;86.70;;;;;;5075212;28;20461;-66
2021/12/17 00:40:24;;;;;;;28.02;22.58;;;12.30;86.20;;;;;;5074479;28;20094;-67
2021/12/17 00:53:29;;;;;;;24.90;19.47;;;12.10;86.50;;;;;;5058696;28;20389;-66
2021/12/17 00:55:55;;;;;;;21.25;18.17;;;12.10;86.40;;;;;;5074136;28;20043;-66
2021/12/17 00:58:21;;;;;;;21.27;18.27;;;12.00;86.80;;;;;;5074675;28;20032;-66
2021/12/17 01:00:47;;;;;;;21.85;18.15;;;12.00;86.70;;;;;;5074536;28;20044;-66
2021/12/17 01:03:12;;;;;;;22.45;19.17;;;12.00;86.90;;;;;;5074132;28;20036;-66
2021/12/17 01:05:39;;;;;;;20.90;18.65;;;12.00;86.70;;;;;;5074595;28;20157;-66
2021/12/17 01:08:06;;;;;;;23.55;19.38;;;12.00;86.80;;;;;;5074239;28;20024;-66
2021/12/17 01:10:41;;;;;;;26.30;21.77;;;11.90;86.90;;;;;;5074080;28;20052;-66
2021/12/17 01:13:08;;;;;;;25.15;21.25;;;12.00;86.70;;;;;;5073751;28;20469;-66
2021/12/17 01:15:36;;;;;;;26.60;21.58;;;12.00;86.70;;;;;;5074212;28;20370;-66
2021/12/17 01:18:08;;;;;;;25.33;21.38;;;11.90;86.90;;;;;;5074197;28;20078;-66
2021/12/17 01:23:31;;;;;;;28.38;21.98;;;11.90;87.00;;;;;;5074041;28;20020;-66
2021/12/17 01:36:38;;;;;;;27.90;14.65;;;11.80;89.60;;;;;;5073517;28;20121;-65
2021/12/17 01:42:06;;;;;;;41.50;11.73;;;11.90;89.90;;;;;;5073845;28;20067;-65
2021/12/17 01:44:38;;;;;;;33.80;10.07;;;11.90;90.00;;;;;;5073711;28;20047;-66
2021/12/17 01:47:05;;;;;;;;;;;11.90;90.10;;;;;;5073862;28;20366;-66
2021/12/17 02:00:31;;;;;;;21.00;9.85;;;11.80;89.90;;;;;;5073400;28;20032;-66
2021/12/17 02:02:59;;;;;;;14.90;9.27;;;11.70;90.10;;;;;;5073590;28;20016;-66
2021/12/17 02:05:25;;;;;;;19.08;10.50;;;11.70;90.10;;;;;;5073359;28;20013;-66
2021/12/17 02:07:53;;;;;;;18.48;10.02;;;11.70;90.00;;;;;;5072618;28;20086;-66
2021/12/17 02:21:28;;;;;;;25.80;11.45;;;11.60;90.40;;;;;;5073336;28;20120;-66
2021/12/17 02:31:57;;;;;;;22.52;13.07;;;11.60;90.20;;;;;;5073228;28;20032;-66
2021/12/17 02:37:11;;;;;;;26.98;13.73;;;11.60;90.20;;;;;;5072793;28;20590;-66
2021/12/17 02:47:38;;;;;;;27.17;13.48;;;11.50;90.10;;;;;;5073406;28;20038;-66
2021/12/17 02:50:05;;;;;;;24.50;12.95;;;11.50;90.10;;;;;;5077053;28;20384;-66
2021/12/17 02:52:35;;;;;;;53.38;14.43;;;11.50;90.00;;;;;;5076675;28;20024;-66
2021/12/17 02:55:02;;;;;;;34.80;14.85;;;11.50;90.00;;;;;;5077129;28;20102;-66
2021/12/17 02:57:27;;;;;;;58.75;14.10;;;11.50;90.00;;;;;;5076726;28;20032;-66
2021/12/17 02:59:53;;;;;;;28.35;13.65;;;11.40;90.00;;;;;;5077138;28;20028;-66
2021/12/17 03:02:24;;;;;;;28.80;13.23;;;11.40;90.00;;;;;;5076648;28;20029;-66
2021/12/17 03:04:50;;;;;;;28.27;12.75;;;11.40;89.90;;;;;;5076686;28;20048;-66
2021/12/17 03:07:15;;;;;;;39.78;12.65;;;11.40;89.80;;;;;;5075067;28;20020;-66
2021/12/17 03:12:22;;;;;;;37.65;13.35;;;11.30;89.60;;;;;;5076503;28;20478;-66
2021/12/17 03:14:59;;;;;;;29.95;12.90;;;11.40;89.60;;;;;;5076387;28;20078;-66
2021/12/17 03:17:51;;;;;;;25.42;13.88;;;11.40;89.50;;;;;;5076504;28;20060;-66
2021/12/17 03:25:38;;;;;;;56.53;13.80;;;11.30;89.30;;;;;;5076105;28;20193;-66
2021/12/17 03:28:04;;;;;;;32.95;13.05;;;11.30;89.00;;;;;;5076107;28;20470;-66
2021/12/17 03:30:29;;;;;;;29.02;13.57;;;11.30;89.00;;;;;;5076026;28;20044;-66
2021/12/17 03:32:55;;;;;;;25.45;14.63;;;11.30;89.40;;;;;;5076218;28;20093;-66
2021/12/17 03:35:21;;;;;;;43.05;14.73;;;11.30;89.40;;;;;;5075488;28;20096;-66
2021/12/17 03:37:46;;;;;;;43.10;14.95;;;11.20;89.30;;;;;;5076023;28;20028;-66
2021/12/17 03:40:15;;;;;;;39.20;15.23;;;11.20;89.40;;;;;;5075817;28;20047;-66
2021/12/17 03:42:46;;;;;;;29.58;15.57;;;11.20;89.30;;;;;;5076071;28;20036;-66
2021/12/17 03:45:12;;;;;;;40.77;16.13;;;11.20;89.90;;;;;;5075899;28;20378;-66
2021/12/17 03:47:38;;;;;;;60.20;15.77;;;11.20;90.00;;;;;;5076100;28;20263;-66
2021/12/17 03:50:04;;;;;;;50.47;14.88;;;11.20;90.00;;;;;;5075822;28;20047;-65
2021/12/17 03:52:30;;;;;;;53.97;17.02;;;11.20;90.30;;;;;;5075889;28;20415;-65
2021/12/17 03:54:56;;;;;;;52.75;15.65;;;11.20;90.10;;;;;;5075594;28;20553;-66
2021/12/17 03:57:22;;;;;;;67.55;15.68;;;11.20;90.10;;;;;;5075698;28;20115;-66
2021/12/17 03:59:48;;;;;;;57.53;16.13;;;11.10;90.30;;;;;;5075533;28;20024;-66
2021/12/17 04:02:14;;;;;;;45.05;15.40;;;11.10;90.30;;;;;;5075860;28;20024;-66
2021/12/17 04:04:39;;;;;;;49.33;15.15;;;11.10;90.20;;;;;;5073938;28;20023;-66
2021/12/17 04:07:05;;;;;;;59.38;14.95;;;11.10;90.30;;;;;;5075561;28;20378;-66
2021/12/17 04:09:31;;;;;;;56.20;15.48;;;11.10;90.20;;;;;;5075324;28;20029;-66
2021/12/17 04:12:00;;;;;;;72.95;16.05;;;11.10;90.00;;;;;;5075400;28;20461;-66
2021/12/17 04:14:33;;;;;;;49.22;15.07;;;11.10;90.20;;;;;;5075477;28;20040;-66
2021/12/17 04:17:05;;;;;;;48.38;15.63;;;11.00;90.40;;;;;;5075436;28;20145;-66
2021/12/17 04:19:31;;;;;;;55.47;15.07;;;11.00;90.50;;;;;;5075102;28;20438;-66
2021/12/17 04:21:57;;;;;;;30.98;15.07;;;11.10;90.50;;;;;;5075210;28;20052;-66
2021/12/17 04:24:23;;;;;;;50.20;14.75;;;11.00;90.40;;;;;;5075112;28;20031;-66
2021/12/17 04:26:48;;;;;;;38.00;14.23;;;11.10;90.30;;;;;;5075238;28;20086;-66
2021/12/17 04:29:15;;;;;;;49.15;14.43;;;11.00;90.30;;;;;;5075324;28;20070;-66
2021/12/17 04:31:41;;;;;;;45.55;14.25;;;11.00;90.40;;;;;;5074995;28;20060;-66
2021/12/17 04:34:06;;;;;;;40.72;12.90;;;11.00;90.40;;;;;;5074758;28;20055;-64
2021/12/17 04:36:35;;;;;;;40.42;12.73;;;11.00;90.30;;;;;;5074824;28;20036;-64
2021/12/17 04:39:01;;;;;;;42.55;13.32;;;11.10;89.50;;;;;;5073543;28;20016;-65
2021/12/17 04:46:53;;;;;;;24.85;11.52;;;11.20;88.60;;;;;;5087417;28;20089;-63
2021/12/17 04:57:32;;;;;;;27.02;10.38;;;11.20;88.20;;;;;;5086691;28;20488;-62
2021/12/17 05:00:03;;;;;;;44.47;8.38;;;11.10;88.30;;;;;;5074886;28;20021;-63
2021/12/17 05:02:31;;;;;;;37.80;9.50;;;11.10;88.10;;;;;;5083837;28;20023;-63
2021/12/17 05:04:57;;;;;;;28.08;9.13;;;11.10;88.20;;;;;;5094796;28;20055;-63
2021/12/17 05:07:24;;;;;;;23.50;8.80;;;11.10;88.20;;;;;;5100456;28;20051;-65
2021/12/17 05:20:40;;;;;;;30.33;9.40;;;11.10;89.20;;;;;;5091917;28;20396;-63
2021/12/17 05:23:06;;;;;;;28.35;9.68;;;11.10;89.10;;;;;;5094304;28;20024;-63
2021/12/17 05:25:31;;;;;;;34.15;9.20;;;11.10;88.80;;;;;;5093881;28;20439;-63
2021/12/17 05:28:01;;;;;;;46.13;10.25;;;11.00;88.70;;;;;;5094316;28;20031;-63
2021/12/17 05:30:32;;;;;;;31.50;10.85;;;11.00;89.40;;;;;;5094091;28;20016;-63
2021/12/17 05:32:57;;;;;;;31.98;10.00;;;11.00;89.80;;;;;;5092668;28;20028;-64
2021/12/17 05:35:24;;;;;;;43.10;9.60;;;11.00;90.00;;;;;;5094217;28;20055;-63
2021/12/17 05:37:50;;;;;;;45.45;9.75;;;11.00;90.00;;;;;;5093919;28;20103;-63
2021/12/17 05:40:15;;;;;;;33.72;9.85;;;11.00;90.10;;;;;;5094048;28;20500;-63
2021/12/17 05:42:42;;;;;;;40.53;10.38;;;11.00;90.10;;;;;;5093763;28;20070;-63
2021/12/17 05:45:21;;;;;;;28.60;9.95;;;11.00;90.20;;;;;;5093921;28;20090;-63
2021/12/17 05:47:47;;;;;;;28.52;8.60;;;11.00;90.50;;;;;;5093921;28;20028;-63
2021/12/17 05:50:13;;;;;;;36.60;8.73;;;11.00;90.50;;;;;;5093947;28;20050;-63
2021/12/17 05:52:38;;;;;;;43.22;9.02;;;11.00;90.50;;;;;;5093755;28;20032;-63
2021/12/17 05:55:05;;;;;;;48.03;9.95;;;11.00;90.60;;;;;;5093922;28;20103;-63
2021/12/17 05:57:30;;;;;;;36.78;9.10;;;11.00;90.70;;;;;;5093701;28;20024;-64
2021/12/17 05:59:56;;;;;;;25.08;8.20;;;11.00;90.90;;;;;;5093509;28;20543;-63
2021/12/17 06:02:22;;;;;;;37.17;8.90;;;11.00;90.70;;;;;;5085675;28;20016;-63
2021/12/17 06:04:47;;;;;;;39.63;9.65;;;11.00;91.00;;;;;;5092705;28;20035;-63
2021/12/17 06:07:13;;;;;;;38.05;9.93;;;11.00;91.10;;;;;;5092339;28;20016;-64
2021/12/17 06:09:39;;;;;;;29.77;10.20;;;11.00;91.10;;;;;;5093432;28;20469;-64
2021/12/17 06:12:05;;;;;;;41.13;10.45;;;11.00;91.50;;;;;;5093711;28;20369;-63
2021/12/17 06:14:30;;;;;;;53.75;11.32;;;11.00;91.20;;;;;;5091990;28;20040;-63
2021/12/17 06:16:57;;;;;;;39.10;12.55;;;11.00;91.20;;;;;;5093549;28;20097;-63
2021/12/17 06:19:22;;;;;;;34.80;13.07;;;11.00;91.20;;;;;;5093556;28;20103;-63
2021/12/17 06:21:48;;;;;;;54.60;14.00;;;11.00;91.30;;;;;;5093130;28;20066;-63
2021/12/17 06:24:14;;;;;;;46.40;14.82;;;11.00;91.30;;;;;;5092883;28;20024;-63
2021/12/17 06:26:40;;;;;;;48.22;16.15;;;11.00;91.20;;;;;;5093471;28;20032;-63
2021/12/17 06:29:06;;;;;;;60.38;16.08;;;11.00;91.20;;;;;;5093031;28;20023;-64
2021/12/17 06:31:31;;;;;;;35.75;14.80;;;11.00;91.50;;;;;;5093276;28;20103;-64
2021/12/17 06:33:57;;;;;;;41.67;15.85;;;11.00;91.60;;;;;;5093123;28;20030;-64
2021/12/17 06:36:23;;;;;;;39.47;14.32;;;11.00;91.60;;;;;;5093156;28;20541;-64
2021/12/17 06:38:49;;;;;;;49.50;16.40;;;11.00;91.50;;;;;;5093035;28;20057;-63
2021/12/17 06:41:15;;;;;;;38.33;16.70;;;10.90;91.60;;;;;;5092212;28;20401;-64
2021/12/17 06:43:42;;;;;;;41.90;17.08;;;10.90;91.80;;;;;;5092792;28;20024;-63
2021/12/17 06:48:43;;;;;;;37.95;17.10;;;10.90;91.90;;;;;;5093203;28;20032;-64
2021/12/17 07:19:10;;;;;;;43.83;19.17;;;10.90;92.30;;;;;;5092930;28;20035;-63
2021/12/17 07:21:34;;;;;;;44.88;19.02;;;10.90;92.40;;;;;;5092524;28;20377;-63
2021/12/17 07:35:25;;;;;;;48.58;18.92;;;10.90;92.60;;;;;;5073173;28;20067;-64
2021/12/17 07:40:33;;;;;;;42.65;19.98;;;10.90;92.80;;;;;;5112265;28;20038;-64
2021/12/17 07:43:02;;;;;;;55.92;21.45;;;11.00;92.90;;;;;;5104311;28;20031;-65
2021/12/17 07:45:28;;;;;;;46.70;21.05;;;10.90;92.90;;;;;;5090646;28;20032;-66
2021/12/17 07:47:54;;;;;;;58.13;20.00;;;10.80;93.10;;;;;;5095743;28;20020;-63
2021/12/17 07:50:20;;;;;;;57.83;20.33;;;10.80;93.20;;;;;;5085396;28;20034;-64
2021/12/17 07:52:46;;;;;;;48.40;20.88;;;10.80;93.30;;;;;;5082429;28;20046;-65
2021/12/17 07:55:12;;;;;;;34.33;16.95;;;10.80;93.40;;;;;;5081668;28;20032;-63
2021/12/17 07:57:38;;;;;;;40.42;20.13;;;10.90;93.40;;;;;;5082106;28;20028;-64
2021/12/17 08:00:06;;;;;;;49.03;22.05;;;11.00;93.30;;;;;;5090007;28;20095;-65
2021/12/17 08:02:32;;;;;;;46.17;21.90;;;10.80;93.30;;;;;;5085835;28;20043;-64
2021/12/17 08:04:57;;;;;;;51.65;22.90;;;10.70;93.50;;;;;;5081645;28;20060;-64
2021/12/17 08:07:23;;;;;;;56.97;25.05;;;10.70;93.70;;;;;;5092891;28;20152;-64
2021/12/17 08:09:49;;;;;;;51.13;23.45;;;10.80;93.60;;;;;;5087401;28;20064;-65
2021/12/17 08:12:16;;;;;;;48.60;23.77;;;10.80;93.70;;;;;;5086764;28;20024;-64
2021/12/17 08:14:42;;;;;;;54.83;24.27;;;10.80;93.70;;;;;;5093480;28;20028;-64
2021/12/17 08:17:33;;;;;;;54.70;25.55;;;10.80;93.70;;;;;;5081532;28;20448;-65
2021/12/17 08:23:24;;;;;;;52.08;25.48;;;10.90;93.70;;;;;;5077581;28;20085;-64
2021/12/17 08:25:40;;;;;;;60.13;27.55;;;11.00;93.80;;;;;;5079488;28;20098;-65
2021/12/17 08:28:09;;;;;;;72.10;30.63;;;11.00;93.90;;;;;;5082830;28;20111;-65
2021/12/17 08:30:40;;;;;;;70.57;29.33;;;11.00;93.90;;;;;;5074706;28;20052;-65
2021/12/17 08:33:07;;;;;;;76.65;29.25;;;11.00;93.90;;;;;;5081420;28;20110;-65
2021/12/17 08:35:34;;;;;;;64.75;29.60;;;11.10;94.00;;;;;;5076183;28;22107;-65
2021/12/17 08:38:02;;;;;;;77.07;29.85;;;11.00;94.00;;;;;;5078696;28;20097;-64
2021/12/17 08:40:29;;;;;;;62.45;29.88;;;11.00;94.10;;;;;;5084617;28;20144;-64
2021/12/17 08:42:55;;;;;;;63.42;29.88;;;11.00;94.10;;;;;;5087827;28;20020;-65
2021/12/17 08:45:21;;;;;;;67.28;29.75;;;11.00;94.10;;;;;;5073242;28;20059;-65
2021/12/17 08:47:47;;;;;;;69.07;29.38;;;11.00;94.20;;;;;;5083036;28;20020;-65
2021/12/17 08:50:13;;;;;;;66.55;29.45;;;10.90;94.30;;;;;;5073487;28;20024;-65
2021/12/17 08:52:40;;;;;;;63.85;30.60;;;10.90;94.30;;;;;;5084685;28;20444;-65
2021/12/17 08:55:07;;;;;;;65.38;28.15;;;10.90;94.40;;;;;;5077356;28;20398;-64
2021/12/17 08:57:32;;;;;;;60.92;28.30;;;10.90;94.50;;;;;;5085565;28;20066;-65
2021/12/17 09:00:04;;;;;;;64.97;29.83;;;11.00;94.50;;;;;;5078391;28;20063;-66
2021/12/17 09:02:30;;;;;;;65.17;29.93;;;11.00;94.80;;;;;;5084655;28;20024;-65
2021/12/17 09:04:55;;;;;;;69.43;29.88;;;11.00;94.50;;;;;;5085082;28;20021;-65
2021/12/17 09:07:21;;;;;;;59.13;28.00;;;11.00;94.60;;;;;;5074025;28;20168;-65
2021/12/17 09:09:48;;;;;;;60.45;26.35;;;11.00;94.60;;;;;;5074397;28;20032;-65
2021/12/17 09:12:14;;;;;;;54.20;24.17;;;11.00;94.70;;;;;;5077488;28;20028;-65
2021/12/17 09:14:39;;;;;;;51.67;24.00;;;11.00;94.50;;;;;;5087121;28;20040;-65
2021/12/17 09:17:05;;;;;;;52.47;23.83;;;11.00;94.60;;;;;;5075571;28;20036;-64
2021/12/17 09:19:32;;;;;;;55.40;25.42;;;11.00;94.60;;;;;;5093696;28;20492;-65
2021/12/17 09:21:58;;;;;;;43.42;21.67;;;11.10;94.50;;;;;;5080290;28;20021;-65
2021/12/17 09:24:23;;;;;;;48.75;21.92;;;11.10;94.50;;;;;;5085389;28;20629;-65
2021/12/17 09:26:49;;;;;;;54.50;23.13;;;11.10;94.60;;;;;;5085129;28;20089;-65
2021/12/17 09:29:15;;;;;;;45.60;22.80;;;11.10;94.60;;;;;;5110701;28;20015;-66
2021/12/17 09:31:41;;;;;;;45.47;22.80;;;11.10;94.60;;;;;;5090017;28;20573;-66
2021/12/17 09:34:07;;;;;;;50.65;23.35;;;11.10;94.60;;;;;;5087918;28;20024;-65
2021/12/17 09:36:33;;;;;;;45.85;22.83;;;11.10;94.70;;;;;;5077122;28;20035;-66
2021/12/17 09:38:59;;;;;;;43.78;22.17;;;11.10;94.60;;;;;;5081996;28;20025;-65
2021/12/17 09:41:26;;;;;;;47.78;22.15;;;11.20;94.70;;;;;;5081903;28;20029;-64
2021/12/17 09:43:53;;;;;;;45.95;22.90;;;11.20;94.50;;;;;;5090585;28;20023;-65
2021/12/17 09:46:19;;;;;;;47.72;22.75;;;11.30;94.50;;;;;;5092823;28;20024;-66
2021/12/17 09:48:47;;;;;;;46.63;21.88;;;11.20;94.50;;;;;;5089844;28;20069;-65
2021/12/17 09:51:13;;;;;;;41.88;22.25;;;11.20;94.70;;;;;;5078214;28;20355;-65
2021/12/17 09:53:39;;;;;;;44.78;21.58;;;11.20;94.60;;;;;;5078451;28;20075;-65
2021/12/17 09:56:05;;;;;;;43.85;21.20;;;11.20;94.70;;;;;;5079159;28;20501;-65
2021/12/17 09:58:32;;;;;;;39.28;22.15;;;11.10;94.70;;;;;;5085188;28;20470;-66
2021/12/17 10:00:58;;;;;;;38.60;22.52;;;11.10;94.90;;;;;;5077727;28;20035;-64
2021/12/17 10:03:24;;;;;;;40.70;22.55;;;11.20;94.80;;;;;;5073454;28;20016;-65
2021/12/17 10:05:50;;;;;;;42.65;22.52;;;11.10;95.00;;;;;;5075672;28;20088;-64
2021/12/17 10:08:19;;;;;;;39.90;22.55;;;11.10;94.90;;;;;;5083667;28;20059;-65
2021/12/17 10:10:53;;;;;;;43.30;23.77;;;11.20;94.80;;;;;;5073629;28;20087;-66
2021/12/17 10:13:21;;;;;;;42.15;22.98;;;11.20;94.80;;;;;;5076596;28;20032;-65
2021/12/17 10:15:49;;;;;;;49.42;24.60;;;11.20;94.80;;;;;;5079514;28;20080;-65
2021/12/17 10:18:17;;;;;;;52.42;25.33;;;11.20;94.80;;;;;;5086840;28;20025;-66
2021/12/17 10:21:00;;;;;;;50.92;25.00;;;11.20;95.10;;;;;;5087815;28;20020;-66
2021/12/17 10:23:27;;;;;;;56.20;36.28;;;11.30;94.90;;;;;;5081823;28;20489;-65
2021/12/17 10:25:53;;;;;;;47.55;25.10;;;11.20;95.00;;;;;;5073769;28;20119;-65
2021/12/17 10:28:19;;;;;;;45.05;23.85;;;11.30;95.10;;;;;;5089110;28;20126;-65
2021/12/17 10:30:47;;;;;;;48.22;27.90;;;11.40;95.00;;;;;;5087637;28;20077;-65
2021/12/17 10:33:18;;;;;;;47.85;24.02;;;11.40;95.00;;;;;;5084328;28;20068;-64
2021/12/17 10:35:48;;;;;;;50.28;27.08;;;11.50;94.90;;;;;;5088506;28;20028;-64
2021/12/17 10:38:17;;;;;;;50.33;26.13;;;11.50;94.90;;;;;;5089141;28;20035;-64
2021/12/17 10:40:58;;;;;;;54.42;26.60;;;11.60;94.90;;;;;;5086708;28;20106;-64
2021/12/17 10:43:31;;;;;;;53.27;27.60;;;11.60;94.90;;;;;;5082780;28;20020;-64
2021/12/17 10:46:12;;;;;;;53.92;27.75;;;11.60;94.90;;;;;;5072225;28;20085;-63
2021/12/17 10:54:07;;;;;;;55.75;29.05;;;11.50;95.00;;;;;;5068220;28;20051;-63
2021/12/17 10:56:35;;;;;;;64.10;31.02;;;11.50;95.10;;;;;;5072275;28;20562;-64
2021/12/17 10:59:10;;;;;;;62.33;32.58;;;11.50;95.10;;;;;;5087460;28;20028;-63
2021/12/17 11:01:44;;;;;;;66.40;32.88;;;11.50;95.00;;;;;;5078778;28;20495;-64
2021/12/17 11:04:17;;;;;;;72.50;34.70;;;11.50;95.10;;;;;;5072756;28;20036;-64
2021/12/17 11:06:44;;;;;;;58.75;31.63;;;11.60;95.10;;;;;;5081502;28;20485;-65
2021/12/17 11:09:10;;;;;;;61.67;32.63;;;11.60;95.00;;;;;;5069782;28;20507;-63
2021/12/17 11:11:41;;;;;;;59.47;30.80;;;11.60;95.10;;;;;;5075797;28;20457;-64
2021/12/17 11:14:08;;;;;;;53.15;30.00;;;11.60;95.50;;;;;;5086350;28;20040;-65
2021/12/17 11:16:36;;;;;;;55.05;30.92;;;11.60;95.20;;;;;;5080231;28;20465;-64
2021/12/17 11:19:03;;;;;;;48.00;27.63;;;11.50;95.20;;;;;;5075978;28;20143;-64
2021/12/17 11:21:30;;;;;;;45.75;26.83;;;11.60;95.80;;;;;;5075480;28;20031;-64
2021/12/17 11:23:57;;;;;;;35.97;23.50;;;11.60;95.50;;;;;;5082308;28;20020;-65
2021/12/17 11:26:23;;;;;;;33.63;21.85;;;11.50;95.30;;;;;;5083727;28;20097;-66
2021/12/17 11:28:49;;;;;;;33.22;22.23;;;11.50;95.40;;;;;;5074839;28;20260;-70
2021/12/17 11:31:15;;;;;;;32.72;21.27;;;11.50;95.40;;;;;;5083232;28;20020;-71
2021/12/17 11:33:43;;;;;;;31.13;20.35;;;11.40;95.50;;;;;;5076861;28;20109;-68
2021/12/17 11:36:08;;;;;;;33.20;20.42;;;11.50;95.50;;;;;;5086067;28;20040;-69
2021/12/17 11:38:52;;;;;;;29.70;20.58;;;11.50;95.40;;;;;;5084378;28;20074;-69
2021/12/17 11:41:26;;;;;;;29.77;19.90;;;11.60;95.50;;;;;;5082431;28;20405;-69
2021/12/17 11:43:57;;;;;;;32.20;20.60;;;11.60;95.40;;;;;;5086426;28;20363;-69
2021/12/17 11:46:26;;;;;;;30.58;21.13;;;11.50;95.30;;;;;;5071978;28;20031;-68
2021/12/17 11:48:58;;;;;;;31.75;20.85;;;11.60;95.40;;;;;;5082079;28;20028;-67
2021/12/17 11:51:30;;;;;;;30.63;19.60;;;11.60;95.30;;;;;;5079777;28;20053;-66
2021/12/17 11:54:06;;;;;;;31.73;19.75;;;11.60;95.30;;;;;;5090804;28;20415;-66
2021/12/17 11:56:51;;;;;;;26.77;18.63;;;11.70;95.50;;;;;;5092723;28;20050;-65
2021/12/17 11:59:38;;;;;;;29.85;19.67;;;11.70;95.30;;;;;;5077904;28;20583;-67
2021/12/17 12:02:22;;;;;;;29.20;18.45;;;11.60;95.10;;;;;;5072706;28;20166;-65
2021/12/17 12:05:03;;;;;;;34.90;20.45;;;11.70;95.10;;;;;;5080319;28;20070;-65
2021/12/17 12:07:29;;;;;;;33.00;19.83;;;11.80;95.20;;;;;;5074109;28;20035;-64
2021/12/17 12:10:11;;;;;;;32.95;20.52;;;11.70;94.90;;;;;;5071397;28;20044;-65
2021/12/17 12:12:45;;;;;;;31.35;19.58;;;11.80;95.00;;;;;;5086359;28;20020;-64
2021/12/17 12:15:17;;;;;;;30.40;20.17;;;11.80;95.00;;;;;;5086548;28;20185;-63
2021/12/17 12:17:58;;;;;;;33.55;20.75;;;11.90;94.90;;;;;;5075098;28;20044;-64
2021/12/17 12:20:49;;;;;;;35.40;20.63;;;12.00;94.90;;;;;;5080518;28;20381;-66
2021/12/17 12:23:34;;;;;;;34.03;21.73;;;12.10;94.90;;;;;;5084463;28;20138;-65
2021/12/17 12:26:03;;;;;;;32.88;20.85;;;12.10;94.80;;;;;;5080017;28;20111;-63
2021/12/17 12:28:50;;;;;;;39.53;23.73;;;12.20;94.80;;;;;;5079624;28;20021;-64
2021/12/17 12:31:24;;;;;;;40.00;23.00;;;12.10;94.90;;;;;;5074596;28;20047;-63
2021/12/17 12:34:08;;;;;;;35.35;22.90;;;12.10;94.60;;;;;;5071885;28;20032;-68
2021/12/17 12:36:45;;;;;;;33.25;22.77;;;12.10;94.70;;;;;;5079286;28;20032;-65
2021/12/17 12:39:18;;;;;;;39.28;24.35;;;12.20;94.90;;;;;;5091179;28;20069;-63
2021/12/17 12:41:57;;;;;;;38.80;25.42;;;12.20;94.70;;;;;;5082990;28;20032;-65
2021/12/17 12:44:42;;;;;;;50.03;27.25;;;12.30;94.70;;;;;;5081578;28;20036;-63
2021/12/17 12:47:13;;;;;;;42.65;29.85;;;12.40;94.80;;;;;;5090093;28;20071;-65
2021/12/17 12:49:45;;;;;;;46.25;28.83;;;12.40;94.80;;;;;;5081621;28;20027;-66
2021/12/17 12:52:31;;;;;;;49.78;34.33;;;12.40;94.70;;;;;;5077972;28;20032;-68
2021/12/17 12:55:05;;;;;;;52.60;32.45;;;12.40;94.60;;;;;;5086474;28;20477;-71
2021/12/17 12:57:37;;;;;;;52.78;34.85;;;12.40;94.60;;;;;;5089779;28;20033;-67
2021/12/17 13:00:12;;;;;;;49.25;33.30;;;12.50;94.40;;;;;;5080679;28;20023;-70
2021/12/17 13:02:39;;;;;;;51.78;33.97;;;12.40;94.40;;;;;;5086516;28;20431;-71
2021/12/17 13:05:06;;;;;;;48.30;33.38;;;12.40;94.40;;;;;;5090487;28;20145;-67
2021/12/17 13:07:34;;;;;;;48.97;34.38;;;12.30;94.50;;;;;;5072400;28;20544;-72
2021/12/17 13:10:07;;;;;;;44.78;33.45;;;12.30;94.60;;;;;;5078318;28;20020;-66
2021/12/17 13:12:35;;;;;;;53.63;37.15;;;12.40;94.80;;;;;;5092749;28;20394;-72
2021/12/17 13:15:19;;;;;;;48.33;34.10;;;12.30;94.60;;;;;;5094119;28;20028;-72
2021/12/17 13:23:25;;;;;;;51.20;38.35;;;12.30;94.60;;;;;;5094414;28;20055;-71
2021/12/17 13:26:01;;;;;;;50.67;35.05;;;12.30;94.70;;;;;;5094337;28;20062;-72
2021/12/17 13:28:27;;;;;;;47.70;35.35;;;12.30;94.70;;;;;;5094438;28;20107;-69
2021/12/17 13:30:56;;;;;;;53.25;37.08;;;12.30;94.70;;;;;;5094026;28;20495;-72
2021/12/17 13:33:21;;;;;;;48.38;33.42;;;12.30;94.80;;;;;;5093978;28;20028;-68
2021/12/17 13:35:47;;;;;;;44.03;31.80;;;12.30;94.80;;;;;;5094167;28;20016;-68
2021/12/17 13:38:13;;;;;;;43.88;33.33;;;12.30;94.80;;;;;;5094120;28;20121;-68
2021/12/17 13:40:39;;;;;;;45.20;32.33;;;12.40;94.70;;;;;;5093868;28;20017;-68
2021/12/17 13:43:04;;;;;;;46.53;33.17;;;12.40;94.70;;;;;;5093716;28;20028;-65
2021/12/17 13:45:30;;;;;;;45.65;31.15;;;12.30;94.80;;;;;;5080215;28;20036;-68
2021/12/17 13:47:57;;;;;;;40.95;29.55;;;12.40;94.80;;;;;;5086012;28;20031;-66
2021/12/17 13:50:33;;;;;;;41.80;29.98;;;12.50;94.70;;;;;;5082981;28;20023;-66
2021/12/17 13:53:01;;;;;;;43.88;28.88;;;12.60;94.60;;;;;;5094613;28;20024;-65
2021/12/17 13:55:43;;;;;;;40.95;29.65;;;12.60;94.50;;;;;;5082451;28;20513;-69
2021/12/17 13:58:15;;;;;;;41.60;30.45;;;12.70;94.50;;;;;;5097569;28;20081;-66
2021/12/17 14:00:43;;;;;;;42.70;29.65;;;12.60;94.40;;;;;;5105464;28;20049;-66
2021/12/17 14:03:11;;;;;;;37.60;26.55;;;12.70;94.40;;;;;;5090442;28;20115;-65
2021/12/17 14:05:40;;;;;;;36.17;26.80;;;12.70;94.70;;;;;;5078923;28;20055;-64
2021/12/17 14:08:09;;;;;;;47.53;32.85;;;12.70;94.40;;;;;;5084551;28;20087;-65
2021/12/17 14:10:36;;;;;;;39.13;28.52;;;12.70;94.40;;;;;;5092989;28;20393;-65
2021/12/17 14:13:04;;;;;;;37.25;27.88;;;12.80;94.30;;;;;;5092581;28;20129;-64
2021/12/17 14:15:35;;;;;;;34.15;27.25;;;12.80;94.30;;;;;;5092848;28;20034;-64
2021/12/17 14:18:07;;;;;;;36.53;26.58;;;12.80;94.30;;;;;;5081897;28;20036;-65
2021/12/17 14:20:48;;;;;;;32.13;23.90;;;12.80;94.30;;;;;;5085125;28;20021;-65
2021/12/17 14:23:23;;;;;;;29.05;22.23;;;12.80;94.20;;;;;;5081890;28;20082;-65
2021/12/17 14:25:57;;;;;;;32.67;27.85;;;12.80;94.30;;;;;;5089092;28;20023;-65
2021/12/17 14:28:30;;;;;;;30.38;22.98;;;12.80;94.20;;;;;;5076537;28;20027;-64
2021/12/17 14:31:13;;;;;;;30.70;22.35;;;12.70;94.30;;;;;;5091396;28;20020;-65
2021/12/17 14:33:44;;;;;;;34.55;22.83;;;12.80;94.30;;;;;;5092382;28;20527;-65
2021/12/17 14:36:11;;;;;;;26.45;19.67;;;12.80;94.40;;;;;;5087093;28;20071;-64
2021/12/17 14:38:39;;;;;;;32.33;19.67;;;12.90;94.30;;;;;;5077925;28;20065;-64
2021/12/17 14:41:07;;;;;;;28.40;19.90;;;12.90;94.30;;;;;;5082526;28;20028;-65
2021/12/17 14:43:32;;;;;;;26.38;20.58;;;12.90;94.20;;;;;;5084569;28;20473;-65
2021/12/17 14:46:50;;;;;;;23.42;17.85;;;12.90;94.10;;;;;;5088878;28;20062;-65
2021/12/17 14:49:27;;;;;;;25.77;16.20;;;12.80;94.10;;;;;;5077492;28;20075;-65
2021/12/17 15:00:28;;;;;;;14.57;12.23;;;12.70;94.00;;;;;;5090217;28;20053;-65
2021/12/17 15:03:02;;;;;;;17.30;13.45;;;12.70;93.80;;;;;;5077426;28;20099;-65
2021/12/17 15:05:30;;;;;;;17.35;12.57;;;12.70;93.70;;;;;;5092112;28;20035;-65
2021/12/17 15:07:57;;;;;;;19.55;13.63;;;12.70;93.70;;;;;;5092114;28;20027;-65
2021/12/17 15:10:23;;;;;;;18.85;14.65;;;12.70;93.70;;;;;;5091904;28;20024;-65
2021/12/17 15:12:55;;;;;;;19.58;15.18;;;12.70;93.60;;;;;;5091287;28;20115;-65
2021/12/17 15:15:23;;;;;;;21.17;16.43;;;12.70;93.60;;;;;;5092015;28;20036;-64
2021/12/17 15:17:51;;;;;;;20.92;15.77;;;12.70;93.90;;;;;;5091258;28;20298;-65
2021/12/17 15:20:20;;;;;;;22.33;17.25;;;12.70;93.60;;;;;;5084873;28;20481;-65
2021/12/17 15:22:46;;;;;;;26.42;22.48;;;12.80;93.50;;;;;;5092021;28;20055;-65
2021/12/17 15:25:14;;;;;;;27.25;19.60;;;12.80;93.70;;;;;;5092545;28;20028;-65
2021/12/17 15:27:41;;;;;;;31.98;22.60;;;12.80;93.60;;;;;;5092887;28;20158;-65
2021/12/17 15:30:14;;;;;;;30.33;22.13;;;12.80;93.50;;;;;;5078476;28;20129;-66
2021/12/17 15:32:40;;;;;;;29.33;21.77;;;12.90;93.70;;;;;;5087212;28;20470;-66
2021/12/17 15:35:20;;;;;;;30.52;22.75;;;12.90;93.50;;;;;;5080185;28;20039;-64
2021/12/17 15:37:49;;;;;;;31.23;23.40;;;12.90;93.50;;;;;;5072282;28;20127;-64
2021/12/17 15:40:15;;;;;;;30.65;22.23;;;12.90;93.50;;;;;;5073570;28;20023;-64
2021/12/17 15:42:42;;;;;;;28.83;21.35;;;12.80;93.60;;;;;;5072384;28;20551;-64
2021/12/17 15:45:09;;;;;;;27.15;20.02;;;12.80;93.50;;;;;;5071178;28;20029;-65
2021/12/17 15:47:36;;;;;;;28.17;23.27;;;12.70;93.60;;;;;;5089089;28;20020;-64